Time;durP1;ratioP1;P1;durP2;ratioP2;P2;SDS_P1;SDS_P2;PMS_P1;PMS_P2;Temp;Humidity;BMP_temperature;BMP_pressure;BME280_temperature;BME280_humidity;BME280_pressure;Samples;Min_cycle;Max_cycle;Signal;HPM_P1;HPM_P2
2021/08/17 00:01:14;;;;;;;;;;;;;;;17.63;48.17;100146.28;1614911;87;20182;-76
2021/08/17 00:03:40;;;;;;;;;;;;;;;17.58;48.58;100160.05;1617491;87;20807;-76
2021/08/17 00:06:06;;;;;;;;;;;;;;;17.52;48.47;100152.91;1618847;87;20823;-76
2021/08/17 00:08:41;;;;;;;;;;;;;;;17.47;48.53;100149.69;1617431;88;20192;-76
2021/08/17 00:11:07;;;;;;;;;;;;;;;17.43;48.35;100139.47;1599123;88;20772;-76
2021/08/17 00:13:33;;;;;;;;;;;;;;;17.35;48.59;100139.86;1617688;88;20208;-76
2021/08/17 00:16:00;;;;;;;;;;;;;;;17.34;48.58;100146.47;1618579;87;20178;-76
2021/08/17 00:18:27;;;;;;;;;;;;;;;17.30;48.49;100141.02;1617571;87;20473;-76
2021/08/17 00:20:54;;;;;;;;;;;;;;;17.19;48.57;100126.73;1618216;87;20189;-76
2021/08/17 00:23:21;;;;;;;;;;;;;;;17.17;48.46;100129.88;1617854;87;20210;-76
2021/08/17 00:25:47;;;;;;;;;;;;;;;17.10;48.62;100132.91;1617643;87;20181;-76
2021/08/17 00:28:13;;;;;;;;;;;;;;;17.05;48.77;100122.70;1617694;87;20564;-76
2021/08/17 00:30:39;;;;;;;;;;;;;;;17.01;49.01;100122.47;1617793;88;20712;-76
2021/08/17 00:33:05;;;;;;;;;;;;;;;17.04;49.13;100118.39;1625280;87;20210;-76
2021/08/17 00:35:32;;;;;;;;;;;;;;;17.06;48.75;100120.93;1619430;88;20206;-76
2021/08/17 00:38:01;;;;;;;;;;;;;;;17.02;49.08;100118.93;1617447;87;20330;-76
2021/08/17 00:40:27;;;;;;;;;;;;;;;17.03;49.05;100119.78;1616684;88;20530;-76
2021/08/17 00:42:56;;;;;;;;;;;;;;;16.94;49.10;100117.16;1615597;87;20197;-76
2021/08/17 00:45:27;;;;;;;;;;;;;;;16.93;49.14;100119.39;1616855;88;20882;-76
2021/08/17 00:47:54;;;;;;;;;;;;;;;16.91;49.48;100121.23;1644369;87;20592;-76
2021/08/17 00:50:28;;;;;;;;;;;;;;;16.91;49.31;100123.84;1617461;87;20190;-76
2021/08/17 00:52:58;;;;;;;;;;;;;;;16.87;49.50;100130.98;1618140;88;20144;-76
2021/08/17 00:55:27;;;;;;;;;;;;;;;16.88;49.41;100129.22;1618839;88;20161;-76
2021/08/17 00:57:54;;;;;;;;;;;;;;;16.82;49.53;100145.19;1629747;87;20185;-76
2021/08/17 01:00:20;;;;;;;;;;;;;;;16.81;49.69;100139.58;1635178;87;20190;-76
2021/08/17 01:02:59;;;;;;;;;;;;;;;16.75;49.62;100149.86;1625820;88;20209;-76
2021/08/17 01:05:28;;;;;;;;;;;;;;;16.71;49.63;100152.70;1624915;87;20183;-76
2021/08/17 01:07:55;;;;;;;;;;;;;;;16.72;49.87;100159.16;1624045;88;20129;-76
2021/08/17 01:10:22;;;;;;;;;;;;;;;16.72;49.75;100154.39;1625315;87;20181;-76
2021/08/17 01:12:48;;;;;;;;;;;;;;;16.72;49.92;100154.39;1626223;88;20189;-76
2021/08/17 01:15:17;;;;;;;;;;;;;;;16.74;50.00;100156.47;1625926;88;20264;-76
2021/08/17 01:17:44;;;;;;;;;;;;;;;16.71;50.04;100147.02;1627298;86;20226;-76
2021/08/17 01:20:19;;;;;;;;;;;;;;;16.71;50.12;100147.48;1636782;87;20203;-76
2021/08/17 01:22:50;;;;;;;;;;;;;;;16.68;49.64;100143.25;1648010;87;20103;-76
2021/08/17 01:25:16;;;;;;;;;;;;;;;16.62;50.00;100150.53;1632436;86;20705;-76
2021/08/17 01:27:43;;;;;;;;;;;;;;;16.60;50.35;100151.91;1627301;88;20130;-76
2021/08/17 01:30:11;;;;;;;;;;;;;;;16.61;50.25;100147.08;1626374;86;20405;-76
2021/08/17 01:32:37;;;;;;;;;;;;;;;16.61;50.35;100154.06;1625243;88;20134;-76
2021/08/17 01:35:05;;;;;;;;;;;;;;;16.59;50.19;100148.07;1626136;88;20126;-76
2021/08/17 01:37:31;;;;;;;;;;;;;;;16.53;50.24;100153.13;1627146;86;20149;-76
2021/08/17 01:40:03;;;;;;;;;;;;;;;16.50;50.62;100150.66;1627293;88;20425;-76
2021/08/17 01:42:30;;;;;;;;;;;;;;;16.48;50.52;100142.91;1627028;86;20109;-76
2021/08/17 01:44:59;;;;;;;;;;;;;;;16.48;50.65;100145.97;1616421;87;20466;-76
2021/08/17 01:47:30;;;;;;;;;;;;;;;16.47;50.68;100137.75;1616637;88;20105;-76
2021/08/17 01:49:56;;;;;;;;;;;;;;;16.45;50.75;100143.05;1615798;87;20105;-76
2021/08/17 01:52:22;;;;;;;;;;;;;;;16.46;51.02;100144.73;1614469;88;20117;-76
2021/08/17 01:54:48;;;;;;;;;;;;;;;16.44;50.93;100146.58;1616463;88;20172;-76
2021/08/17 01:57:14;;;;;;;;;;;;;;;16.47;50.60;100144.28;1618733;87;20105;-76
2021/08/17 01:59:40;;;;;;;;;;;;;;;16.43;50.71;100138.81;1617582;87;20164;-76
2021/08/17 02:02:08;;;;;;;;;;;;;;;16.39;50.89;100140.73;1611412;89;20123;-76
2021/08/17 02:04:35;;;;;;;;;;;;;;;16.41;51.10;100137.58;1616716;87;20146;-76
2021/08/17 02:07:01;;;;;;;;;;;;;;;16.42;51.19;100120.16;1616446;88;20118;-76
2021/08/17 02:09:27;;;;;;;;;;;;;;;16.43;51.11;100121.40;1618754;88;20101;-76
2021/08/17 02:11:54;;;;;;;;;;;;;;;16.41;51.22;100125.84;1621986;87;20418;-76
2021/08/17 02:14:20;;;;;;;;;;;;;;;16.43;51.16;100125.77;1633639;87;20264;-76
2021/08/17 02:16:46;;;;;;;;;;;;;;;16.42;51.05;100135.82;1622358;88;20141;-76
2021/08/17 02:19:12;;;;;;;;;;;;;;;16.38;51.13;100127.30;1617801;87;20876;-76
2021/08/17 02:21:39;;;;;;;;;;;;;;;16.36;51.25;100126.52;1618152;88;20212;-76
2021/08/17 02:24:05;;;;;;;;;;;;;;;16.35;51.32;100128.74;1633955;87;20141;-76
2021/08/17 02:26:32;;;;;;;;;;;;;;;16.33;51.31;100126.66;1616708;88;20501;-76
2021/08/17 02:28:58;;;;;;;;;;;;;;;16.26;51.15;100122.66;1618399;88;20284;-76
2021/08/17 02:31:24;;;;;;;;;;;;;;;16.20;51.07;100120.33;1617238;88;20562;-76
2021/08/17 02:33:50;;;;;;;;;;;;;;;16.18;51.44;100123.02;1623391;87;20219;-76
2021/08/17 02:36:16;;;;;;;;;;;;;;;16.18;51.43;100124.31;1632044;88;20230;-76
2021/08/17 02:38:42;;;;;;;;;;;;;;;16.16;51.44;100118.33;1625042;87;20173;-76
2021/08/17 02:41:08;;;;;;;;;;;;;;;16.15;51.39;100123.61;1617894;88;20840;-76
2021/08/17 02:43:34;;;;;;;;;;;;;;;16.11;51.57;100128.16;1618127;88;20137;-76
2021/08/17 02:46:00;;;;;;;;;;;;;;;16.09;51.55;100117.41;1617916;87;20504;-76
2021/08/17 02:48:26;;;;;;;;;;;;;;;16.08;51.27;100110.04;1617162;87;20300;-76
2021/08/17 02:50:59;;;;;;;;;;;;;;;16.01;51.50;100117.77;1615421;88;20150;-76
2021/08/17 02:53:25;;;;;;;;;;;;;;;15.97;51.51;100120.58;1618730;87;20229;-76
2021/08/17 02:55:51;;;;;;;;;;;;;;;15.95;51.64;100119.34;1616940;88;20359;-76
2021/08/17 02:58:17;;;;;;;;;;;;;;;15.92;51.56;100119.95;1595822;89;20205;-76
2021/08/17 03:00:44;;;;;;;;;;;;;;;15.88;51.73;100124.00;1596659;89;20837;-76
2021/08/17 03:03:18;;;;;;;;;;;;;;;15.86;51.71;100119.77;1594226;89;20612;-76
2021/08/17 03:05:43;;;;;;;;;;;;;;;15.85;51.76;100110.25;1589497;89;20209;-76
2021/08/17 03:08:10;;;;;;;;;;;;;;;15.82;51.76;100103.88;1596038;89;20193;-76
2021/08/17 03:10:37;;;;;;;;;;;;;;;15.77;51.81;100105.38;1561459;90;20155;-76
2021/08/17 03:13:05;;;;;;;;;;;;;;;15.74;51.78;100096.41;1592845;88;20243;-76
2021/08/17 03:15:34;;;;;;;;;;;;;;;15.70;52.01;100098.76;1595317;89;20446;-76
2021/08/17 03:18:05;;;;;;;;;;;;;;;15.69;51.87;100102.28;1595385;88;20142;-76
2021/08/17 03:20:32;;;;;;;;;;;;;;;15.67;52.04;100100.66;1594535;89;20126;-76
2021/08/17 03:22:59;;;;;;;;;;;;;;;15.61;52.05;100096.56;1597091;88;20109;-76
2021/08/17 03:25:26;;;;;;;;;;;;;;;15.58;52.11;100098.49;1597260;89;20095;-76
2021/08/17 03:27:52;;;;;;;;;;;;;;;15.55;52.14;100093.77;1596890;89;20529;-76
2021/08/17 03:30:21;;;;;;;;;;;;;;;15.54;52.17;100096.45;1596949;89;20131;-76
2021/08/17 03:32:48;;;;;;;;;;;;;;;15.51;52.23;100096.58;1596623;90;20435;-76
2021/08/17 03:35:14;;;;;;;;;;;;;;;15.51;52.24;100108.31;1595705;90;20552;-76
2021/08/17 03:37:40;;;;;;;;;;;;;;;15.54;52.22;100118.59;1581476;89;20479;-76
2021/08/17 03:40:10;;;;;;;;;;;;;;;15.55;52.31;100109.87;1598546;89;20114;-76
2021/08/17 03:42:37;;;;;;;;;;;;;;;15.54;52.33;100120.75;1595836;90;20128;-76
2021/08/17 03:45:05;;;;;;;;;;;;;;;15.53;52.20;100122.12;1597721;89;20122;-76
2021/08/17 03:47:44;;;;;;;;;;;;;;;15.50;52.43;100118.34;1585154;89;20547;-76
2021/08/17 03:50:12;;;;;;;;;;;;;;;15.50;52.57;100127.47;1574244;90;20746;-76
2021/08/17 03:52:39;;;;;;;;;;;;;;;15.51;52.40;100132.61;1571936;91;20153;-76
2021/08/17 03:55:07;;;;;;;;;;;;;;;15.52;52.41;100124.33;1536001;93;20178;-76
2021/08/17 03:57:33;;;;;;;;;;;;;;;15.49;52.37;100120.10;1551557;90;20194;-76
2021/08/17 03:59:59;;;;;;;;;;;;;;;15.47;52.59;100122.39;1567611;90;20166;-76
2021/08/17 04:02:26;;;;;;;;;;;;;;;15.48;52.69;100124.92;1566493;91;21077;-76
2021/08/17 04:04:52;;;;;;;;;;;;;;;15.47;52.66;100111.97;1593545;89;20138;-76
2021/08/17 04:07:18;;;;;;;;;;;;;;;15.47;52.79;100105.45;1557036;90;20095;-76
2021/08/17 04:09:44;;;;;;;;;;;;;;;15.49;52.66;100115.34;1568669;91;20188;-76
2021/08/17 04:12:10;;;;;;;;;;;;;;;15.48;52.86;100111.05;1595315;89;21124;-76
2021/08/17 04:14:37;;;;;;;;;;;;;;;15.51;52.92;100110.91;1559224;91;20240;-76
2021/08/17 04:17:03;;;;;;;;;;;;;;;15.55;52.78;100111.17;1557881;91;20439;-76
2021/08/17 04:19:29;;;;;;;;;;;;;;;15.53;53.02;100116.45;1554666;91;20442;-76
2021/08/17 04:21:55;;;;;;;;;;;;;;;15.53;52.70;100113.00;1563052;91;20218;-76
2021/08/17 04:24:27;;;;;;;;;;;;;;;15.54;53.00;100112.92;1556116;91;20569;-76
2021/08/17 04:26:53;;;;;;;;;;;;;;;15.59;52.90;100114.06;1547365;91;20510;-76
2021/08/17 04:29:19;;;;;;;;;;;;;;;15.63;53.00;100118.19;1556714;91;20506;-76
2021/08/17 04:31:45;;;;;;;;;;;;;;;15.66;53.11;100116.75;1550840;92;20531;-76
2021/08/17 04:34:11;;;;;;;;;;;;;;;15.69;53.17;100113.16;1558123;92;20225;-76
2021/08/17 04:36:37;;;;;;;;;;;;;;;15.73;53.22;100108.20;1560745;90;20713;-76
2021/08/17 04:39:03;;;;;;;;;;;;;;;15.80;53.30;100123.50;1559482;91;20480;-76
2021/08/17 04:41:31;;;;;;;;;;;;;;;15.83;53.25;100125.97;1555323;92;20528;-76
2021/08/17 04:43:58;;;;;;;;;;;;;;;15.85;53.08;100127.20;1555610;90;20476;-76
2021/08/17 04:46:24;;;;;;;;;;;;;;;15.83;53.12;100131.64;1558971;91;20142;-76
2021/08/17 04:48:50;;;;;;;;;;;;;;;15.82;53.22;100126.03;1557340;90;20797;-76
2021/08/17 04:51:18;;;;;;;;;;;;;;;15.81;53.19;100134.31;1566602;91;20349;-76
2021/08/17 04:53:50;;;;;;;;;;;;;;;15.78;53.18;100132.30;1570258;90;20446;-76
2021/08/17 04:56:16;;;;;;;;;;;;;;;15.75;53.41;100138.50;1569165;91;20725;-76
2021/08/17 04:58:42;;;;;;;;;;;;;;;15.75;53.38;100144.17;1614275;87;20195;-76
2021/08/17 05:01:08;;;;;;;;;;;;;;;15.73;53.37;100140.33;1621403;87;20187;-76
2021/08/17 05:03:34;;;;;;;;;;;;;;;15.75;53.38;100142.41;1615772;87;20564;-76
2021/08/17 05:06:02;;;;;;;;;;;;;;;15.75;53.51;100141.10;1614349;87;20409;-76
2021/08/17 05:08:28;;;;;;;;;;;;;;;15.76;53.51;100140.19;1616340;88;20449;-76
2021/08/17 05:10:54;;;;;;;;;;;;;;;15.80;53.48;100131.31;1615553;87;20188;-76
2021/08/17 05:13:20;;;;;;;;;;;;;;;15.78;53.29;100125.78;1616958;87;20809;-76
2021/08/17 05:15:46;;;;;;;;;;;;;;;15.78;53.87;100127.09;1592547;88;20741;-77
2021/08/17 05:18:12;;;;;;;;;;;;;;;15.81;53.78;100123.88;1614244;88;20446;-76
2021/08/17 05:20:38;;;;;;;;;;;;;;;15.87;53.89;100125.37;1616478;88;20418;-76
2021/08/17 05:23:04;;;;;;;;;;;;;;;15.91;53.78;100128.23;1616925;87;20405;-76
2021/08/17 05:25:30;;;;;;;;;;;;;;;15.94;53.95;100133.76;1612850;88;20106;-76
2021/08/17 05:27:57;;;;;;;;;;;;;;;16.01;53.80;100119.06;1611635;89;20406;-76
2021/08/17 05:30:23;;;;;;;;;;;;;;;16.02;53.82;100125.97;1612795;87;20454;-76
2021/08/17 05:32:49;;;;;;;;;;;;;;;16.06;53.73;100135.80;1616006;87;20717;-76
2021/08/17 05:35:15;;;;;;;;;;;;;;;16.05;53.94;100130.20;1615253;88;20117;-76
2021/08/17 05:37:41;;;;;;;;;;;;;;;16.04;53.97;100131.97;1554857;90;20299;-76
2021/08/17 05:40:08;;;;;;;;;;;;;;;16.02;54.01;100137.70;1578410;89;20707;-76
2021/08/17 05:42:35;;;;;;;;;;;;;;;16.01;54.08;100129.95;1585616;90;20608;-76
2021/08/17 05:45:02;;;;;;;;;;;;;;;16.00;54.28;100139.55;1613667;87;20507;-76
2021/08/17 05:47:28;;;;;;;;;;;;;;;16.03;54.08;100142.47;1614555;87;21127;-76
2021/08/17 05:49:54;;;;;;;;;;;;;;;16.03;54.14;100139.86;1613086;87;20465;-76
2021/08/17 05:52:20;;;;;;;;;;;;;;;16.02;54.07;100147.30;1615395;87;20769;-76
2021/08/17 05:54:46;;;;;;;;;;;;;;;15.99;54.14;100144.37;1615243;87;20209;-76
2021/08/17 05:57:12;;;;;;;;;;;;;;;15.99;54.15;100146.13;1615037;87;20540;-76
2021/08/17 05:59:38;;;;;;;;;;;;;;;15.97;54.30;100157.09;1611174;87;20442;-76
2021/08/17 06:02:05;;;;;;;;;;;;;;;15.99;54.43;100153.95;1618011;87;20512;-76
2021/08/17 06:04:31;;;;;;;;;;;;;;;16.07;54.39;100161.81;1620090;87;20209;-76
2021/08/17 06:06:57;;;;;;;;;;;;;;;16.17;54.27;100160.91;1615216;87;20541;-76
2021/08/17 06:09:23;;;;;;;;;;;;;;;16.20;54.33;100145.95;1615558;87;20508;-76
2021/08/17 06:11:57;;;;;;;;;;;;;;;16.24;54.43;100142.75;1614518;87;20194;-76
2021/08/17 06:14:19;;;;;;;;;;;;;;;16.29;54.47;100151.67;1615754;87;20447;-76
2021/08/17 06:16:45;;;;;;;;;;;;;;;16.30;54.36;100149.45;1615299;87;20315;-76
2021/08/17 06:19:12;;;;;;;;;;;;;;;16.25;54.35;100152.27;1615357;87;20222;-76
2021/08/17 06:21:38;;;;;;;;;;;;;;;16.26;54.64;100147.44;1610605;87;20203;-76
2021/08/17 06:24:05;;;;;;;;;;;;;;;16.26;54.59;100155.27;1607862;87;20453;-76
2021/08/17 06:26:32;;;;;;;;;;;;;;;16.23;54.53;100151.49;1591595;88;20335;-76
2021/08/17 06:28:58;;;;;;;;;;;;;;;16.21;54.64;100150.26;1605870;87;20394;-76
2021/08/17 06:31:24;;;;;;;;;;;;;;;16.23;54.64;100143.20;1616091;86;20179;-76
2021/08/17 06:33:50;;;;;;;;;;;;;;;16.27;54.59;100148.28;1619097;87;20201;-76
2021/08/17 06:36:19;;;;;;;;;;;;;;;16.25;54.76;100162.70;1605013;87;20156;-76
2021/08/17 06:38:45;;;;;;;;;;;;;;;16.25;54.69;100159.25;1614916;87;20116;-76
2021/08/17 06:41:11;;;;;;;;;;;;;;;16.24;54.67;100159.70;1613870;87;20091;-76
2021/08/17 06:43:38;;;;;;;;;;;;;;;16.22;54.92;100161.08;1602071;88;20477;-76
2021/08/17 06:46:04;;;;;;;;;;;;;;;16.26;54.99;100167.46;1611550;87;20218;-76
2021/08/17 06:48:30;;;;;;;;;;;;;;;16.29;54.77;100162.11;1594013;87;20138;-76
2021/08/17 06:50:57;;;;;;;;;;;;;;;16.32;54.99;100169.33;1617588;87;20430;-76
2021/08/17 06:53:23;;;;;;;;;;;;;;;16.38;54.85;100174.72;1615853;87;20139;-76
2021/08/17 06:55:49;;;;;;;;;;;;;;;16.39;54.82;100173.34;1618012;87;20107;-76
2021/08/17 06:58:15;;;;;;;;;;;;;;;16.42;54.90;100156.70;1609314;87;20139;-76
2021/08/17 07:00:42;;;;;;;;;;;;;;;16.47;55.00;100167.77;1606211;87;20145;-76
2021/08/17 07:03:09;;;;;;;;;;;;;;;16.55;54.96;100170.41;1583289;90;20145;-76
2021/08/17 07:05:40;;;;;;;;;;;;;;;16.55;54.83;100174.77;1573558;90;20179;-76
2021/08/17 07:08:06;;;;;;;;;;;;;;;16.60;55.06;100166.73;1599713;87;20093;-76
2021/08/17 07:10:34;;;;;;;;;;;;;;;16.69;54.96;100167.13;1590115;90;20116;-77
2021/08/17 07:13:00;;;;;;;;;;;;;;;16.73;54.99;100172.59;1615811;87;20119;-76
2021/08/17 07:15:26;;;;;;;;;;;;;;;16.79;54.94;100182.74;1592122;83;5000491;-76
2021/08/17 07:17:53;;;;;;;;;;;;;;;16.83;55.02;100183.44;1721837;81;20106;-76
2021/08/17 07:20:19;;;;;;;;;;;;;;;16.89;55.02;100188.37;1688700;84;20130;-76
2021/08/17 07:22:48;;;;;;;;;;;;;;;16.95;54.83;100184.61;1723002;81;20469;-76
2021/08/17 07:25:17;;;;;;;;;;;;;;;16.97;54.85;100186.23;1688262;84;20337;-76
2021/08/17 07:27:43;;;;;;;;;;;;;;;17.10;55.01;100186.47;1690609;84;20095;-76
2021/08/17 07:30:13;;;;;;;;;;;;;;;17.27;55.00;100175.99;1677864;84;20108;-76
2021/08/17 07:32:43;;;;;;;;;;;;;;;17.46;54.93;100185.05;1674751;84;20141;-76
2021/08/17 07:35:14;;;;;;;;;;;;;;;17.58;54.82;100183.58;1675760;84;20165;-76
2021/08/17 07:37:44;;;;;;;;;;;;;;;17.68;54.81;100184.33;1664910;84;20128;-76
2021/08/17 07:40:14;;;;;;;;;;;;;;;17.73;54.68;100180.17;1673036;84;20140;-76
2021/08/17 07:42:40;;;;;;;;;;;;;;;17.75;54.71;100175.24;1693014;84;20153;-76
2021/08/17 07:45:10;;;;;;;;;;;;;;;17.77;54.64;100184.31;1720544;82;20174;-76
2021/08/17 07:47:39;;;;;;;;;;;;;;;17.74;54.54;100181.40;1717495;82;20262;-76
2021/08/17 07:50:07;;;;;;;;;;;;;;;17.65;54.51;100177.98;1727609;82;20171;-76
2021/08/17 07:52:35;;;;;;;;;;;;;;;17.57;54.58;100177.97;1722163;83;20201;-76
2021/08/17 07:55:03;;;;;;;;;;;;;;;17.51;54.56;100162.98;1711131;82;20158;-76
2021/08/17 07:57:29;;;;;;;;;;;;;;;17.50;54.64;100178.75;1722923;82;20461;-76
2021/08/17 07:59:58;;;;;;;;;;;;;;;17.54;54.68;100168.05;1719519;82;20184;-76
2021/08/17 08:02:24;;;;;;;;;;;;;;;17.69;54.71;100172.10;1687162;84;20276;-76
2021/08/17 08:04:51;;;;;;;;;;;;;;;17.84;54.69;100170.84;1722433;82;20132;-76
2021/08/17 08:07:23;;;;;;;;;;;;;;;17.93;54.53;100172.13;1683115;84;20434;-76
2021/08/17 08:09:49;;;;;;;;;;;;;;;17.94;54.44;100180.81;1721558;82;20217;-76
2021/08/17 08:12:15;;;;;;;;;;;;;;;17.92;54.33;100180.05;1678822;84;20197;-76
2021/08/17 08:14:54;;;;;;;;;;;;;;;17.79;54.39;100175.47;1683609;84;20241;-76
2021/08/17 08:17:20;;;;;;;;;;;;;;;17.74;54.41;100175.33;1695756;83;20247;-76
2021/08/17 08:19:46;;;;;;;;;;;;;;;17.75;54.47;100179.16;1703885;82;20219;-76
2021/08/17 08:22:15;;;;;;;;;;;;;;;17.81;54.53;100182.77;1716631;82;20178;-76
2021/08/17 08:24:41;;;;;;;;;;;;;;;17.86;54.43;100191.68;1694250;83;20181;-76
2021/08/17 08:27:07;;;;;;;;;;;;;;;17.92;54.37;100182.66;1723331;83;20170;-76
2021/08/17 08:29:43;;;;;;;;;;;;;;;17.91;54.28;100182.28;1720338;82;20212;-76
2021/08/17 08:32:10;;;;;;;;;;;;;;;18.01;54.42;100186.10;1721137;83;20170;-76
2021/08/17 08:34:36;;;;;;;;;;;;;;;18.19;54.44;100183.34;1680026;84;20187;-76
2021/08/17 08:37:02;;;;;;;;;;;;;;;18.51;54.48;100192.02;1685971;84;20235;-76
2021/08/17 08:39:33;;;;;;;;;;;;;;;18.73;54.19;100187.75;1716289;82;20271;-76
2021/08/17 08:41:59;;;;;;;;;;;;;;;18.85;54.19;100173.95;1689300;84;20214;-76
2021/08/17 08:44:33;;;;;;;;;;;;;;;18.94;54.00;100176.52;1678775;84;20221;-76
2021/08/17 08:47:00;;;;;;;;;;;;;;;19.05;54.07;100172.81;1669386;84;20270;-76
2021/08/17 08:49:27;;;;;;;;;;;;;;;19.22;54.01;100181.47;1648056;85;20216;-76
2021/08/17 08:52:00;;;;;;;;;;;;;;;19.27;53.91;100180.23;1698503;82;20218;-76
2021/08/17 08:54:26;;;;;;;;;;;;;;;19.16;53.73;100184.83;1675527;84;20117;-76
2021/08/17 08:56:52;;;;;;;;;;;;;;;19.05;53.79;100180.67;1678515;84;20130;-76
2021/08/17 08:59:25;;;;;;;;;;;;;;;18.95;53.75;100194.39;1727558;81;20213;-76
2021/08/17 09:02:05;;;;;;;;;;;;;;;18.84;53.76;100188.45;1733572;81;20200;-76
2021/08/17 09:04:31;;;;;;;;;;;;;;;18.72;53.57;100191.77;1731592;82;20121;-76
2021/08/17 09:06:57;;;;;;;;;;;;;;;18.53;53.63;100178.84;1733766;81;20100;-76
2021/08/17 09:09:23;;;;;;;;;;;;;;;18.44;53.75;100188.52;1722367;81;20108;-76
2021/08/17 09:11:52;;;;;;;;;;;;;;;18.49;53.85;100193.88;1726875;81;20530;-76
2021/08/17 09:14:31;;;;;;;;;;;;;;;18.81;53.95;100174.22;1725672;82;20126;-76
2021/08/17 09:17:00;;;;;;;;;;;;;;;18.87;53.64;100192.67;1687572;84;20180;-76
2021/08/17 09:19:38;;;;;;;;;;;;;;;18.77;53.72;100205.44;1738873;81;20432;-76
2021/08/17 09:22:24;;;;;;;;;;;;;;;18.73;53.70;100205.23;1689583;84;20098;-76
2021/08/17 09:24:55;;;;;;;;;;;;;;;18.61;53.61;100208.56;1706852;82;20253;-76
2021/08/17 09:27:32;;;;;;;;;;;;;;;18.50;53.66;100199.50;1712273;82;20131;-76
2021/08/17 09:30:11;;;;;;;;;;;;;;;18.48;53.83;100198.73;1704379;82;20210;-76
2021/08/17 09:32:54;;;;;;;;;;;;;;;18.60;53.76;100178.92;1696224;83;20148;-76
2021/08/17 09:35:22;;;;;;;;;;;;;;;18.77;53.82;100191.88;1682854;84;20198;-76
2021/08/17 09:38:06;;;;;;;;;;;;;;;19.02;53.76;100190.48;1669107;84;20211;-76
2021/08/17 09:40:33;;;;;;;;;;;;;;;19.07;53.46;100187.98;1686909;84;20392;-76
2021/08/17 09:43:22;;;;;;;;;;;;;;;18.95;53.48;100195.23;1689604;84;20197;-76
2021/08/17 09:45:49;;;;;;;;;;;;;;;18.94;53.58;100194.86;1694511;84;20431;-76
2021/08/17 09:48:18;;;;;;;;;;;;;;;18.95;53.65;100194.39;1700931;83;20196;-76
2021/08/17 09:50:44;;;;;;;;;;;;;;;19.06;53.57;100198.09;1693086;83;20459;-76
2021/08/17 09:53:18;;;;;;;;;;;;;;;19.09;53.53;100195.75;1688423;84;20870;-76
2021/08/17 09:55:51;;;;;;;;;;;;;;;19.09;53.57;100196.59;1697839;83;20124;-76
2021/08/17 09:58:23;;;;;;;;;;;;;;;19.05;53.50;100194.24;1694901;84;20424;-76
2021/08/17 10:00:58;;;;;;;;;;;;;;;19.04;53.53;100193.40;1665605;85;20128;-76
2021/08/17 10:03:25;;;;;;;;;;;;;;;19.01;53.48;100197.50;1661576;84;20136;-76
2021/08/17 10:05:51;;;;;;;;;;;;;;;18.96;53.53;100195.61;1669627;84;20205;-76
2021/08/17 10:08:22;;;;;;;;;;;;;;;19.02;53.49;100199.66;1669741;85;20215;-75
2021/08/17 10:10:50;;;;;;;;;;;;;;;18.95;53.55;100196.55;1672438;84;20173;-75
2021/08/17 10:13:19;;;;;;;;;;;;;;;19.03;53.61;100194.80;1669910;85;20127;-75
2021/08/17 10:15:46;;;;;;;;;;;;;;;19.18;53.67;100203.93;1671110;84;20106;-76
2021/08/17 10:18:17;;;;;;;;;;;;;;;19.30;53.58;100187.08;1662753;84;20156;-76
2021/08/17 10:20:47;;;;;;;;;;;;;;;19.47;53.51;100183.00;1665862;84;20185;-76
2021/08/17 10:23:17;;;;;;;;;;;;;;;19.60;53.52;100177.42;1659690;84;20194;-76
2021/08/17 10:25:46;;;;;;;;;;;;;;;19.78;53.51;100184.16;1649340;87;20112;-76
2021/08/17 10:28:34;;;;;;;;;;;;;;;20.01;53.46;100183.22;1676026;84;20097;-76
2021/08/17 10:31:18;;;;;;;;;;;;;;;20.20;53.27;100181.61;1675920;84;20131;-76
2021/08/17 10:33:52;;;;;;;;;;;;;;;20.23;53.09;100191.45;1674867;84;20225;-76
2021/08/17 10:36:41;;;;;;;;;;;;;;;20.23;53.08;100179.63;1677030;85;20115;-76
2021/08/17 10:39:23;;;;;;;;;;;;;;;20.26;53.19;100186.01;1693723;84;20102;-76
2021/08/17 10:41:52;;;;;;;;;;;;;;;20.34;53.04;100192.06;1695750;83;20095;-76
2021/08/17 10:44:23;;;;;;;;;;;;;;;20.32;52.99;100198.72;1694438;84;20426;-76
2021/08/17 10:47:00;;;;;;;;;;;;;;;20.26;52.88;100193.88;1694567;83;20100;-76
2021/08/17 10:49:29;;;;;;;;;;;;;;;20.12;52.84;100201.30;1699212;83;20114;-76
2021/08/17 10:52:04;;;;;;;;;;;;;;;19.89;52.62;100201.88;1689120;84;20119;-75
2021/08/17 10:54:30;;;;;;;;;;;;;;;19.68;52.80;100204.04;1689345;83;20110;-75
2021/08/17 10:57:00;;;;;;;;;;;;;;;19.52;52.88;100212.91;1688166;84;20143;-75
2021/08/17 10:59:40;;;;;;;;;;;;;;;19.40;52.95;100215.75;1706902;82;20108;-75
2021/08/17 11:02:13;;;;;;;;;;;;;;;19.39;52.99;100212.76;1733490;82;20083;-75
2021/08/17 11:04:42;;;;;;;;;;;;;;;19.47;52.98;100215.31;1727198;81;20103;-75
2021/08/17 11:07:26;;;;;;;;;;;;;;;19.56;53.00;100219.20;1729154;82;20106;-75
2021/08/17 11:09:53;;;;;;;;;;;;;;;19.77;53.08;100196.05;1731289;82;20136;-75
2021/08/17 11:12:20;;;;;;;;;;;;;;;20.00;52.92;100203.37;1732320;81;20100;-76
2021/08/17 11:14:47;;;;;;;;;;;;;;;20.23;52.66;100216.39;1735771;81;20108;-75
2021/08/17 11:17:18;;;;;;;;;;;;;;;20.32;52.55;100194.78;1722374;82;20149;-75
2021/08/17 11:19:48;;;;;;;;;;;;;;;20.37;52.66;100217.66;1731222;82;20096;-75
2021/08/17 11:22:24;;;;;;;;;;;;;;;20.54;52.55;100219.72;1738584;81;20154;-75
2021/08/17 11:24:53;;;;;;;;;;;;;;;20.62;52.48;100218.30;1730203;82;20482;-75
2021/08/17 11:27:25;;;;;;;;;;;;;;;20.76;52.36;100222.20;1723022;81;20092;-76
2021/08/17 11:30:00;;;;;;;;;;;;;;;20.74;52.16;100216.67;1730530;82;20114;-76
2021/08/17 11:32:38;;;;;;;;;;;;;;;20.69;52.23;100214.81;1684205;84;20600;-76
2021/08/17 11:35:07;;;;;;;;;;;;;;;20.63;52.19;100217.36;1706665;82;20099;-76
2021/08/17 11:37:34;;;;;;;;;;;;;;;20.61;52.26;100214.45;1701248;83;20519;-76
2021/08/17 11:40:03;;;;;;;;;;;;;;;20.57;52.12;100219.06;1726245;82;20110;-76
2021/08/17 11:42:31;;;;;;;;;;;;;;;20.51;51.96;100214.19;1729252;81;20118;-74
2021/08/17 11:45:06;;;;;;;;;;;;;;;20.35;52.01;100264.18;1733434;82;20090;-77
2021/08/17 11:47:32;;;;;;;;;;;;;;;19.94;52.14;100297.38;1732906;81;20456;-76
2021/08/17 11:50:05;;;;;;;;;;;;;;;19.24;52.60;100292.30;1732214;82;20134;-76
2021/08/17 11:52:46;;;;;;;;;;;;;;;18.68;53.40;100291.11;1731711;81;20132;-76
2021/08/17 11:55:23;;;;;;;;;;;;;;;18.41;53.34;100290.33;1727055;82;20126;-76
2021/08/17 11:57:52;;;;;;;;;;;;;;;18.13;54.06;100276.57;1731899;82;20121;-76
2021/08/17 12:00:20;;;;;;;;;;;;;;;18.00;54.78;100283.37;1732321;82;20123;-76
2021/08/17 12:02:53;;;;;;;;;;;;;;;17.94;54.69;100282.84;1731119;81;20205;-76
2021/08/17 12:05:21;;;;;;;;;;;;;;;17.94;55.15;100277.61;1735830;82;20285;-76
2021/08/17 12:07:52;;;;;;;;;;;;;;;18.00;55.00;100273.37;1694128;84;20173;-74
2021/08/17 12:10:24;;;;;;;;;;;;;;;18.12;55.02;100276.19;1711710;82;20097;-74
2021/08/17 12:13:05;;;;;;;;;;;;;;;18.29;55.71;100271.34;1690891;84;20212;-74
2021/08/17 12:15:49;;;;;;;;;;;;;;;18.46;55.73;100273.91;1685202;83;20237;-74
2021/08/17 12:18:20;;;;;;;;;;;;;;;18.57;55.79;100265.94;1681578;84;20212;-74
2021/08/17 12:20:55;;;;;;;;;;;;;;;18.65;56.13;100264.63;1706024;82;20125;-74
2021/08/17 12:23:27;;;;;;;;;;;;;;;18.79;56.13;100265.14;1703295;82;20214;-74
2021/08/17 12:26:14;;;;;;;;;;;;;;;18.89;56.17;100257.62;1690742;84;20114;-74
2021/08/17 12:28:41;;;;;;;;;;;;;;;19.04;56.03;100258.06;1692011;83;20407;-74
2021/08/17 12:31:13;;;;;;;;;;;;;;;19.13;56.32;100269.34;1684583;84;20095;-74
2021/08/17 12:33:41;;;;;;;;;;;;;;;19.20;56.17;100268.06;1676611;84;20417;-74
2021/08/17 12:36:07;;;;;;;;;;;;;;;19.17;56.19;100278.26;1716133;82;20138;-74
2021/08/17 12:38:38;;;;;;;;;;;;;;;19.20;56.32;100272.46;1711023;82;20106;-74
2021/08/17 12:41:05;;;;;;;;;;;;;;;19.25;56.43;100271.70;1710968;82;20093;-74
2021/08/17 12:43:34;;;;;;;;;;;;;;;19.28;56.39;100274.99;1711174;83;20110;-74